sensor_id;sensor_type;location;lat;lon;timestamp;P1;durP1;ratioP1;P2;durP2;ratioP2
20857;SDS011;10589;53.636;10.012;2023-05-07T03:45:13;10.23;;;8.70;;
20857;SDS011;10589;53.636;10.012;2023-05-07T03:47:38;13.17;;;8.70;;
20857;SDS011;10589;53.636;10.012;2023-05-07T03:50:04;10.00;;;8.60;;
20857;SDS011;10589;53.636;10.012;2023-05-07T03:52:30;10.03;;;8.87;;
20857;SDS011;10589;53.636;10.012;2023-05-07T03:54:55;11.10;;;8.57;;
20857;SDS011;10589;53.636;10.012;2023-05-07T03:57:21;9.77;;;8.10;;
20857;SDS011;10589;53.636;10.012;2023-05-07T03:59:46;10.43;;;8.80;;
20857;SDS011;10589;53.636;10.012;2023-05-07T04:02:12;11.20;;;9.70;;
20857;SDS011;10589;53.636;10.012;2023-05-07T04:04:38;11.00;;;9.57;;
20857;SDS011;10589;53.636;10.012;2023-05-07T04:07:03;10.30;;;8.73;;
20857;SDS011;10589;53.636;10.012;2023-05-07T04:09:29;12.10;;;9.03;;
20857;SDS011;10589;53.636;10.012;2023-05-07T04:11:55;11.23;;;9.23;;
20857;SDS011;10589;53.636;10.012;2023-05-07T04:14:21;12.70;;;9.40;;
20857;SDS011;10589;53.636;10.012;2023-05-07T04:16:46;10.23;;;9.07;;
20857;SDS011;10589;53.636;10.012;2023-05-07T04:19:12;10.07;;;8.40;;
20857;SDS011;10589;53.636;10.012;2023-05-07T04:21:37;14.20;;;8.83;;
20857;SDS011;10589;53.636;10.012;2023-05-07T04:24:03;11.03;;;8.50;;
20857;SDS011;10589;53.636;10.012;2023-05-07T04:26:29;10.50;;;7.93;;
20857;SDS011;10589;53.636;10.012;2023-05-07T04:28:55;11.37;;;8.43;;
20857;SDS011;10589;53.636;10.012;2023-05-07T04:31:21;9.20;;;7.83;;
20857;SDS011;10589;53.636;10.012;2023-05-07T04:33:47;11.10;;;8.33;;
20857;SDS011;10589;53.636;10.012;2023-05-07T04:36:12;9.10;;;8.10;;
20857;SDS011;10589;53.636;10.012;2023-05-07T04:38:38;10.63;;;8.37;;
20857;SDS011;10589;53.636;10.012;2023-05-07T04:41:04;10.77;;;8.27;;
20857;SDS011;10589;53.636;10.012;2023-05-07T04:43:31;12.43;;;8.93;;
20857;SDS011;10589;53.636;10.012;2023-05-07T04:45:56;11.90;;;8.47;;
20857;SDS011;10589;53.636;10.012;2023-05-07T04:48:22;12.87;;;8.43;;
20857;SDS011;10589;53.636;10.012;2023-05-07T04:50:48;10.63;;;9.03;;
20857;SDS011;10589;53.636;10.012;2023-05-07T04:53:15;11.87;;;9.13;;
20857;SDS011;10589;53.636;10.012;2023-05-07T04:55:42;12.27;;;9.13;;
20857;SDS011;10589;53.636;10.012;2023-05-07T04:58:07;11.57;;;8.43;;
20857;SDS011;10589;53.636;10.012;2023-05-07T05:00:33;10.60;;;8.73;;
20857;SDS011;10589;53.636;10.012;2023-05-07T05:02:59;13.57;;;8.80;;
20857;SDS011;10589;53.636;10.012;2023-05-07T05:05:24;10.77;;;8.13;;
20857;SDS011;10589;53.636;10.012;2023-05-07T05:07:50;10.30;;;8.17;;
20857;SDS011;10589;53.636;10.012;2023-05-07T05:10:16;10.43;;;7.73;;
20857;SDS011;10589;53.636;10.012;2023-05-07T05:12:42;8.63;;;7.53;;
20857;SDS011;10589;53.636;10.012;2023-05-07T05:15:08;8.90;;;7.43;;
20857;SDS011;10589;53.636;10.012;2023-05-07T05:17:35;10.87;;;7.83;;
20857;SDS011;10589;53.636;10.012;2023-05-07T05:20:01;10.50;;;7.40;;
20857;SDS011;10589;53.636;10.012;2023-05-07T05:22:27;8.90;;;7.23;;
20857;SDS011;10589;53.636;10.012;2023-05-07T05:24:54;9.77;;;7.90;;
20857;SDS011;10589;53.636;10.012;2023-05-07T05:27:20;12.17;;;7.60;;
20857;SDS011;10589;53.636;10.012;2023-05-07T05:29:45;11.30;;;7.50;;
20857;SDS011;10589;53.636;10.012;2023-05-07T05:32:11;9.03;;;7.70;;
20857;SDS011;10589;53.636;10.012;2023-05-07T05:34:37;9.17;;;7.40;;
20857;SDS011;10589;53.636;10.012;2023-05-07T05:37:02;9.23;;;7.80;;
20857;SDS011;10589;53.636;10.012;2023-05-07T05:39:28;11.03;;;7.60;;
20857;SDS011;10589;53.636;10.012;2023-05-07T05:41:53;9.43;;;7.10;;
20857;SDS011;10589;53.636;10.012;2023-05-07T05:44:19;9.17;;;7.43;;
20857;SDS011;10589;53.636;10.012;2023-05-07T05:46:45;12.53;;;8.23;;
20857;SDS011;10589;53.636;10.012;2023-05-07T05:49:10;11.23;;;8.53;;
20857;SDS011;10589;53.636;10.012;2023-05-07T05:51:36;8.27;;;7.37;;
20857;SDS011;10589;53.636;10.012;2023-05-07T05:54:01;9.47;;;7.07;;
20857;SDS011;10589;53.636;10.012;2023-05-07T05:56:27;10.13;;;7.80;;
20857;SDS011;10589;53.636;10.012;2023-05-07T05:58:53;10.17;;;7.23;;
20857;SDS011;10589;53.636;10.012;2023-05-07T06:01:18;8.27;;;7.10;;
20857;SDS011;10589;53.636;10.012;2023-05-07T06:03:44;10.97;;;7.90;;
20857;SDS011;10589;53.636;10.012;2023-05-07T06:06:10;9.73;;;7.80;;
20857;SDS011;10589;53.636;10.012;2023-05-07T06:08:35;9.17;;;8.20;;
20857;SDS011;10589;53.636;10.012;2023-05-07T06:11:01;8.70;;;7.10;;
20857;SDS011;10589;53.636;10.012;2023-05-07T06:13:27;10.23;;;7.10;;
20857;SDS011;10589;53.636;10.012;2023-05-07T06:15:53;7.80;;;6.87;;
20857;SDS011;10589;53.636;10.012;2023-05-07T06:18:19;7.67;;;6.83;;
20857;SDS011;10589;53.636;10.012;2023-05-07T06:20:44;8.70;;;7.57;;
20857;SDS011;10589;53.636;10.012;2023-05-07T06:23:10;9.77;;;7.77;;
20857;SDS011;10589;53.636;10.012;2023-05-07T06:25:35;7.13;;;6.40;;
20857;SDS011;10589;53.636;10.012;2023-05-07T06:28:02;8.67;;;6.67;;
20857;SDS011;10589;53.636;10.012;2023-05-07T06:30:27;10.47;;;6.53;;
20857;SDS011;10589;53.636;10.012;2023-05-07T06:32:53;10.67;;;6.43;;
20857;SDS011;10589;53.636;10.012;2023-05-07T06:35:19;7.57;;;6.57;;
20857;SDS011;10589;53.636;10.012;2023-05-07T06:37:44;8.97;;;6.87;;
20857;SDS011;10589;53.636;10.012;2023-05-07T06:40:10;12.03;;;6.87;;
20857;SDS011;10589;53.636;10.012;2023-05-07T06:42:36;7.90;;;6.70;;
20857;SDS011;10589;53.636;10.012;2023-05-07T06:45:02;7.70;;;6.90;;
20857;SDS011;10589;53.636;10.012;2023-05-07T06:47:28;7.30;;;6.33;;
20857;SDS011;10589;53.636;10.012;2023-05-07T06:49:54;9.43;;;7.27;;
20857;SDS011;10589;53.636;10.012;2023-05-07T06:52:19;6.83;;;6.17;;
20857;SDS011;10589;53.636;10.012;2023-05-07T06:54:45;8.17;;;6.00;;
20857;SDS011;10589;53.636;10.012;2023-05-07T06:57:10;9.00;;;6.40;;
20857;SDS011;10589;53.636;10.012;2023-05-07T06:59:36;7.67;;;6.70;;
20857;SDS011;10589;53.636;10.012;2023-05-07T07:02:02;6.43;;;5.80;;
20857;SDS011;10589;53.636;10.012;2023-05-07T07:04:27;8.07;;;6.57;;
20857;SDS011;10589;53.636;10.012;2023-05-07T07:06:53;6.83;;;6.13;;
20857;SDS011;10589;53.636;10.012;2023-05-07T07:09:19;8.23;;;6.53;;
20857;SDS011;10589;53.636;10.012;2023-05-07T07:11:45;8.53;;;6.87;;
20857;SDS011;10589;53.636;10.012;2023-05-07T07:14:10;7.60;;;5.83;;
20857;SDS011;10589;53.636;10.012;2023-05-07T07:16:36;6.40;;;5.60;;
20857;SDS011;10589;53.636;10.012;2023-05-07T07:19:02;7.80;;;5.97;;
20857;SDS011;10589;53.636;10.012;2023-05-07T07:21:27;9.37;;;6.23;;
20857;SDS011;10589;53.636;10.012;2023-05-07T07:23:53;13.50;;;6.57;;
20857;SDS011;10589;53.636;10.012;2023-05-07T07:26:18;8.30;;;6.40;;
20857;SDS011;10589;53.636;10.012;2023-05-07T07:28:45;6.47;;;5.83;;
20857;SDS011;10589;53.636;10.012;2023-05-07T07:31:11;6.57;;;5.80;;
20857;SDS011;10589;53.636;10.012;2023-05-07T07:33:37;6.57;;;5.83;;
20857;SDS011;10589;53.636;10.012;2023-05-07T07:36:02;6.80;;;5.50;;
20857;SDS011;10589;53.636;10.012;2023-05-07T07:38:28;5.47;;;4.90;;
20857;SDS011;10589;53.636;10.012;2023-05-07T07:40:54;5.70;;;5.17;;
20857;SDS011;10589;53.636;10.012;2023-05-07T07:43:19;6.20;;;5.07;;
20857;SDS011;10589;53.636;10.012;2023-05-07T07:45:45;5.80;;;5.10;;
20857;SDS011;10589;53.636;10.012;2023-05-07T07:48:11;5.50;;;4.77;;
20857;SDS011;10589;53.636;10.012;2023-05-07T07:50:36;5.77;;;5.10;;
20857;SDS011;10589;53.636;10.012;2023-05-07T07:53:02;5.80;;;5.20;;
20857;SDS011;10589;53.636;10.012;2023-05-07T07:55:28;5.90;;;4.60;;
20857;SDS011;10589;53.636;10.012;2023-05-07T07:57:54;7.43;;;5.40;;
20857;SDS011;10589;53.636;10.012;2023-05-07T08:00:19;6.47;;;5.07;;
20857;SDS011;10589;53.636;10.012;2023-05-07T08:02:45;5.87;;;5.20;;
20857;SDS011;10589;53.636;10.012;2023-05-07T08:05:11;5.70;;;4.93;;
20857;SDS011;10589;53.636;10.012;2023-05-07T08:07:37;5.67;;;5.07;;
20857;SDS011;10589;53.636;10.012;2023-05-07T08:10:02;5.57;;;5.03;;
20857;SDS011;10589;53.636;10.012;2023-05-07T08:12:29;7.67;;;5.30;;
20857;SDS011;10589;53.636;10.012;2023-05-07T08:14:54;5.27;;;4.67;;
20857;SDS011;10589;53.636;10.012;2023-05-07T08:17:20;7.00;;;5.40;;
20857;SDS011;10589;53.636;10.012;2023-05-07T08:19:47;6.40;;;5.30;;
20857;SDS011;10589;53.636;10.012;2023-05-07T08:22:13;6.03;;;5.43;;
20857;SDS011;10589;53.636;10.012;2023-05-07T08:24:39;7.23;;;5.97;;
20857;SDS011;10589;53.636;10.012;2023-05-07T08:27:05;6.47;;;5.70;;
20857;SDS011;10589;53.636;10.012;2023-05-07T08:29:31;7.13;;;6.00;;
20857;SDS011;10589;53.636;10.012;2023-05-07T08:31:56;6.17;;;5.40;;
20857;SDS011;10589;53.636;10.012;2023-05-07T08:34:22;6.73;;;5.53;;
20857;SDS011;10589;53.636;10.012;2023-05-07T08:36:49;5.80;;;5.20;;
20857;SDS011;10589;53.636;10.012;2023-05-07T08:39:15;6.03;;;5.47;;
20857;SDS011;10589;53.636;10.012;2023-05-07T08:41:43;6.37;;;5.20;;
20857;SDS011;10589;53.636;10.012;2023-05-07T08:44:14;5.30;;;4.80;;
20857;SDS011;10589;53.636;10.012;2023-05-07T08:46:41;5.83;;;5.20;;
20857;SDS011;10589;53.636;10.012;2023-05-07T08:49:08;6.93;;;5.30;;
20857;SDS011;10589;53.636;10.012;2023-05-07T08:51:34;6.33;;;5.20;;
20857;SDS011;10589;53.636;10.012;2023-05-07T08:54:01;5.97;;;4.80;;
20857;SDS011;10589;53.636;10.012;2023-05-07T08:56:27;6.23;;;5.17;;
20857;SDS011;10589;53.636;10.012;2023-05-07T08:58:52;5.30;;;4.73;;
20857;SDS011;10589;53.636;10.012;2023-05-07T09:01:21;5.27;;;4.70;;
20857;SDS011;10589;53.636;10.012;2023-05-07T09:03:47;6.43;;;4.87;;
20857;SDS011;10589;53.636;10.012;2023-05-07T09:06:13;7.50;;;5.00;;
20857;SDS011;10589;53.636;10.012;2023-05-07T09:08:39;5.87;;;4.93;;
20857;SDS011;10589;53.636;10.012;2023-05-07T09:11:04;6.60;;;4.37;;
20857;SDS011;10589;53.636;10.012;2023-05-07T09:13:30;5.20;;;4.70;;
20857;SDS011;10589;53.636;10.012;2023-05-07T09:15:56;5.17;;;4.60;;
20857;SDS011;10589;53.636;10.012;2023-05-07T09:18:23;4.80;;;4.30;;
20857;SDS011;10589;53.636;10.012;2023-05-07T09:20:50;6.40;;;4.60;;
20857;SDS011;10589;53.636;10.012;2023-05-07T09:23:16;6.13;;;4.33;;
20857;SDS011;10589;53.636;10.012;2023-05-07T09:25:41;6.20;;;4.33;;
20857;SDS011;10589;53.636;10.012;2023-05-07T09:28:07;6.83;;;4.60;;
20857;SDS011;10589;53.636;10.012;2023-05-07T09:30:35;6.80;;;4.17;;
20857;SDS011;10589;53.636;10.012;2023-05-07T09:33:02;4.77;;;3.77;;
20857;SDS011;10589;53.636;10.012;2023-05-07T09:35:29;4.03;;;3.40;;
20857;SDS011;10589;53.636;10.012;2023-05-07T09:37:59;4.90;;;4.03;;
20857;SDS011;10589;53.636;10.012;2023-05-07T09:40:26;4.53;;;3.93;;
20857;SDS011;10589;53.636;10.012;2023-05-07T09:42:53;4.40;;;3.70;;
20857;SDS011;10589;53.636;10.012;2023-05-07T09:45:24;4.17;;;3.77;;
20857;SDS011;10589;53.636;10.012;2023-05-07T09:47:53;5.43;;;3.77;;
20857;SDS011;10589;53.636;10.012;2023-05-07T09:50:24;3.97;;;3.57;;
20857;SDS011;10589;53.636;10.012;2023-05-07T09:52:54;6.43;;;3.90;;
20857;SDS011;10589;53.636;10.012;2023-05-07T09:55:20;3.83;;;3.53;;
20857;SDS011;10589;53.636;10.012;2023-05-07T09:57:48;6.20;;;3.73;;
20857;SDS011;10589;53.636;10.012;2023-05-07T10:00:15;4.40;;;3.43;;
20857;SDS011;10589;53.636;10.012;2023-05-07T10:02:44;4.67;;;3.70;;
20857;SDS011;10589;53.636;10.012;2023-05-07T10:05:14;3.70;;;3.30;;
20857;SDS011;10589;53.636;10.012;2023-05-07T10:07:40;4.30;;;3.80;;
20857;SDS011;10589;53.636;10.012;2023-05-07T10:10:06;3.80;;;3.40;;
20857;SDS011;10589;53.636;10.012;2023-05-07T10:12:32;3.60;;;3.30;;
20857;SDS011;10589;53.636;10.012;2023-05-07T10:15:06;3.90;;;3.33;;
20857;SDS011;10589;53.636;10.012;2023-05-07T10:17:36;4.70;;;3.67;;
20857;SDS011;10589;53.636;10.012;2023-05-07T10:20:04;5.73;;;3.57;;
20857;SDS011;10589;53.636;10.012;2023-05-07T10:22:32;4.00;;;3.53;;
20857;SDS011;10589;53.636;10.012;2023-05-07T10:25:16;5.30;;;3.50;;
20857;SDS011;10589;53.636;10.012;2023-05-07T10:27:46;4.20;;;3.10;;
20857;SDS011;10589;53.636;10.012;2023-05-07T10:33:10;3.70;;;3.40;;
20857;SDS011;10589;53.636;10.012;2023-05-07T10:35:39;4.33;;;3.50;;
20857;SDS011;10589;53.636;10.012;2023-05-07T10:38:07;3.93;;;3.30;;
20857;SDS011;10589;53.636;10.012;2023-05-07T10:40:33;6.33;;;3.63;;
20857;SDS011;10589;53.636;10.012;2023-05-07T10:43:00;3.83;;;3.37;;
20857;SDS011;10589;53.636;10.012;2023-05-07T10:45:28;4.17;;;3.37;;
20857;SDS011;10589;53.636;10.012;2023-05-07T10:48:11;4.83;;;3.60;;
20857;SDS011;10589;53.636;10.012;2023-05-07T10:50:38;4.13;;;3.70;;
20857;SDS011;10589;53.636;10.012;2023-05-07T10:55:43;6.60;;;3.53;;
20857;SDS011;10589;53.636;10.012;2023-05-07T11:01:00;3.10;;;2.80;;
20857;SDS011;10589;53.636;10.012;2023-05-07T11:03:27;3.50;;;3.20;;
20857;SDS011;10589;53.636;10.012;2023-05-07T11:11:18;4.07;;;3.10;;
20857;SDS011;10589;53.636;10.012;2023-05-07T11:13:47;3.20;;;2.90;;
20857;SDS011;10589;53.636;10.012;2023-05-07T11:16:24;5.33;;;3.30;;
20857;SDS011;10589;53.636;10.012;2023-05-07T11:18:54;3.20;;;2.93;;
20857;SDS011;10589;53.636;10.012;2023-05-07T11:21:36;3.77;;;2.73;;
20857;SDS011;10589;53.636;10.012;2023-05-07T11:24:04;7.13;;;3.27;;
20857;SDS011;10589;53.636;10.012;2023-05-07T11:26:31;3.50;;;2.87;;
20857;SDS011;10589;53.636;10.012;2023-05-07T11:29:11;3.73;;;2.73;;
20857;SDS011;10589;53.636;10.012;2023-05-07T11:31:38;3.03;;;2.73;;
20857;SDS011;10589;53.636;10.012;2023-05-07T11:34:04;3.47;;;2.37;;
20857;SDS011;10589;53.636;10.012;2023-05-07T11:36:32;3.00;;;2.60;;
20857;SDS011;10589;53.636;10.012;2023-05-07T11:38:58;5.07;;;2.40;;
20857;SDS011;10589;53.636;10.012;2023-05-07T11:41:33;3.73;;;2.50;;
20857;SDS011;10589;53.636;10.012;2023-05-07T11:44:00;3.30;;;2.27;;
20857;SDS011;10589;53.636;10.012;2023-05-07T11:46:26;3.87;;;2.03;;
20857;SDS011;10589;53.636;10.012;2023-05-07T11:48:52;2.50;;;2.07;;
20857;SDS011;10589;53.636;10.012;2023-05-07T11:51:23;3.07;;;2.30;;
20857;SDS011;10589;53.636;10.012;2023-05-07T11:53:51;2.53;;;2.20;;
20857;SDS011;10589;53.636;10.012;2023-05-07T11:56:17;3.17;;;2.53;;
20857;SDS011;10589;53.636;10.012;2023-05-07T11:58:44;3.87;;;2.17;;
20857;SDS011;10589;53.636;10.012;2023-05-07T12:01:12;4.20;;;2.00;;
20857;SDS011;10589;53.636;10.012;2023-05-07T12:03:41;3.10;;;2.30;;
20857;SDS011;10589;53.636;10.012;2023-05-07T12:06:08;2.80;;;2.00;;
20857;SDS011;10589;53.636;10.012;2023-05-07T12:08:38;4.17;;;2.30;;
20857;SDS011;10589;53.636;10.012;2023-05-07T12:11:07;3.23;;;2.07;;
20857;SDS011;10589;53.636;10.012;2023-05-07T12:13:35;2.13;;;1.90;;
20857;SDS011;10589;53.636;10.012;2023-05-07T12:16:01;3.03;;;2.10;;
20857;SDS011;10589;53.636;10.012;2023-05-07T12:18:30;2.63;;;2.30;;
20857;SDS011;10589;53.636;10.012;2023-05-07T12:20:56;3.53;;;2.40;;
20857;SDS011;10589;53.636;10.012;2023-05-07T12:23:22;5.30;;;2.30;;
20857;SDS011;10589;53.636;10.012;2023-05-07T12:25:48;3.67;;;2.07;;
20857;SDS011;10589;53.636;10.012;2023-05-07T12:28:14;4.60;;;2.13;;
20857;SDS011;10589;53.636;10.012;2023-05-07T12:30:45;3.23;;;2.10;;
20857;SDS011;10589;53.636;10.012;2023-05-07T12:33:15;2.33;;;1.97;;
20857;SDS011;10589;53.636;10.012;2023-05-07T12:35:43;3.33;;;1.83;;
20857;SDS011;10589;53.636;10.012;2023-05-07T12:38:10;2.23;;;1.67;;
20857;SDS011;10589;53.636;10.012;2023-05-07T12:40:43;2.27;;;1.57;;
20857;SDS011;10589;53.636;10.012;2023-05-07T12:45:45;2.13;;;1.40;;
20857;SDS011;10589;53.636;10.012;2023-05-07T12:48:13;3.05;;;1.73;;
20857;SDS011;10589;53.636;10.012;2023-05-07T12:50:39;2.92;;;1.40;;
20857;SDS011;10589;53.636;10.012;2023-05-07T12:53:05;3.45;;;1.65;;
20857;SDS011;10589;53.636;10.012;2023-05-07T12:55:34;1.58;;;1.42;;
20857;SDS011;10589;53.636;10.012;2023-05-07T12:58:18;2.30;;;1.30;;
20857;SDS011;10589;53.636;10.012;2023-05-07T13:00:52;2.65;;;1.90;;
20857;SDS011;10589;53.636;10.012;2023-05-07T13:03:26;2.53;;;1.50;;
20857;SDS011;10589;53.636;10.012;2023-05-07T13:05:54;1.30;;;1.20;;
20857;SDS011;10589;53.636;10.012;2023-05-07T13:08:26;1.92;;;1.20;;
20857;SDS011;10589;53.636;10.012;2023-05-07T13:10:54;3.88;;;1.50;;
20857;SDS011;10589;53.636;10.012;2023-05-07T13:13:20;2.42;;;1.40;;
20857;SDS011;10589;53.636;10.012;2023-05-07T13:15:47;2.42;;;1.45;;
20857;SDS011;10589;53.636;10.012;2023-05-07T13:18:13;2.03;;;1.38;;
20857;SDS011;10589;53.636;10.012;2023-05-07T13:20:39;3.15;;;1.00;;
20857;SDS011;10589;53.636;10.012;2023-05-07T13:23:05;1.75;;;1.30;;
20857;SDS011;10589;53.636;10.012;2023-05-07T13:25:31;1.30;;;1.20;;
20857;SDS011;10589;53.636;10.012;2023-05-07T13:27:57;1.88;;;1.30;;
20857;SDS011;10589;53.636;10.012;2023-05-07T13:30:22;1.23;;;1.00;;
20857;SDS011;10589;53.636;10.012;2023-05-07T13:32:48;2.00;;;0.90;;
20857;SDS011;10589;53.636;10.012;2023-05-07T13:35:15;2.15;;;1.60;;
20857;SDS011;10589;53.636;10.012;2023-05-07T13:37:41;1.77;;;1.13;;
20857;SDS011;10589;53.636;10.012;2023-05-07T13:40:06;1.33;;;1.13;;
20857;SDS011;10589;53.636;10.012;2023-05-07T13:42:33;2.42;;;1.10;;
20857;SDS011;10589;53.636;10.012;2023-05-07T13:44:58;1.15;;;1.05;;
20857;SDS011;10589;53.636;10.012;2023-05-07T13:47:24;1.10;;;1.00;;
20857;SDS011;10589;53.636;10.012;2023-05-07T13:49:49;1.80;;;1.08;;
20857;SDS011;10589;53.636;10.012;2023-05-07T13:52:15;1.70;;;1.17;;
20857;SDS011;10589;53.636;10.012;2023-05-07T13:54:41;1.10;;;1.00;;
20857;SDS011;10589;53.636;10.012;2023-05-07T13:57:07;1.50;;;1.13;;
20857;SDS011;10589;53.636;10.012;2023-05-07T13:59:33;2.22;;;1.20;;
20857;SDS011;10589;53.636;10.012;2023-05-07T14:01:58;2.38;;;1.00;;
20857;SDS011;10589;53.636;10.012;2023-05-07T14:04:24;2.17;;;1.00;;
20857;SDS011;10589;53.636;10.012;2023-05-07T14:06:50;1.15;;;0.90;;
20857;SDS011;10589;53.636;10.012;2023-05-07T14:09:16;1.52;;;1.00;;
20857;SDS011;10589;53.636;10.012;2023-05-07T14:11:42;3.45;;;1.00;;
20857;SDS011;10589;53.636;10.012;2023-05-07T14:14:08;5.07;;;0.95;;
20857;SDS011;10589;53.636;10.012;2023-05-07T14:16:35;1.50;;;1.10;;
20857;SDS011;10589;53.636;10.012;2023-05-07T14:19:02;2.35;;;1.10;;
20857;SDS011;10589;53.636;10.012;2023-05-07T14:21:27;2.20;;;1.00;;
20857;SDS011;10589;53.636;10.012;2023-05-07T14:23:53;2.85;;;1.10;;
20857;SDS011;10589;53.636;10.012;2023-05-07T14:26:19;2.22;;;1.00;;
20857;SDS011;10589;53.636;10.012;2023-05-07T14:28:45;1.67;;;0.95;;
20857;SDS011;10589;53.636;10.012;2023-05-07T14:31:12;6.72;;;1.42;;
20857;SDS011;10589;53.636;10.012;2023-05-07T14:33:37;4.00;;;1.20;;
20857;SDS011;10589;53.636;10.012;2023-05-07T14:36:03;1.20;;;1.10;;
20857;SDS011;10589;53.636;10.012;2023-05-07T14:38:29;3.80;;;1.50;;
20857;SDS011;10589;53.636;10.012;2023-05-07T14:40:55;2.90;;;1.33;;
20857;SDS011;10589;53.636;10.012;2023-05-07T14:43:21;4.07;;;1.17;;
20857;SDS011;10589;53.636;10.012;2023-05-07T14:45:47;2.20;;;1.10;;
20857;SDS011;10589;53.636;10.012;2023-05-07T14:48:12;4.60;;;1.50;;
20857;SDS011;10589;53.636;10.012;2023-05-07T14:50:42;4.35;;;1.40;;
20857;SDS011;10589;53.636;10.012;2023-05-07T14:53:08;3.10;;;1.30;;
20857;SDS011;10589;53.636;10.012;2023-05-07T14:55:34;2.33;;;1.42;;
20857;SDS011;10589;53.636;10.012;2023-05-07T14:58:00;3.05;;;1.08;;
20857;SDS011;10589;53.636;10.012;2023-05-07T15:00:26;3.35;;;1.25;;
20857;SDS011;10589;53.636;10.012;2023-05-07T15:02:51;1.67;;;1.20;;
20857;SDS011;10589;53.636;10.012;2023-05-07T15:05:17;1.20;;;1.10;;
20857;SDS011;10589;53.636;10.012;2023-05-07T15:07:44;2.45;;;1.20;;
20857;SDS011;10589;53.636;10.012;2023-05-07T15:10:09;4.18;;;1.98;;
20857;SDS011;10589;53.636;10.012;2023-05-07T15:12:35;2.78;;;1.00;;
20857;SDS011;10589;53.636;10.012;2023-05-07T15:15:01;2.83;;;1.50;;
20857;SDS011;10589;53.636;10.012;2023-05-07T15:17:27;3.00;;;1.30;;
20857;SDS011;10589;53.636;10.012;2023-05-07T15:19:52;3.97;;;1.10;;
20857;SDS011;10589;53.636;10.012;2023-05-07T15:22:18;1.73;;;1.30;;
20857;SDS011;10589;53.636;10.012;2023-05-07T15:24:46;4.40;;;1.45;;
20857;SDS011;10589;53.636;10.012;2023-05-07T15:27:11;2.05;;;1.45;;
20857;SDS011;10589;53.636;10.012;2023-05-07T15:29:37;2.10;;;1.50;;
20857;SDS011;10589;53.636;10.012;2023-05-07T15:32:02;2.05;;;1.65;;
20857;SDS011;10589;53.636;10.012;2023-05-07T15:34:28;2.22;;;1.50;;
20857;SDS011;10589;53.636;10.012;2023-05-07T15:36:55;1.95;;;1.25;;
20857;SDS011;10589;53.636;10.012;2023-05-07T15:39:22;1.58;;;1.33;;
20857;SDS011;10589;53.636;10.012;2023-05-07T15:41:47;1.92;;;1.20;;
20857;SDS011;10589;53.636;10.012;2023-05-07T15:44:13;1.42;;;1.13;;
20857;SDS011;10589;53.636;10.012;2023-05-07T15:46:39;1.85;;;1.50;;
20857;SDS011;10589;53.636;10.012;2023-05-07T15:49:04;2.13;;;1.42;;
20857;SDS011;10589;53.636;10.012;2023-05-07T15:51:30;4.18;;;1.50;;
20857;SDS011;10589;53.636;10.012;2023-05-07T15:53:56;1.65;;;1.40;;
20857;SDS011;10589;53.636;10.012;2023-05-07T15:56:21;2.00;;;1.50;;
20857;SDS011;10589;53.636;10.012;2023-05-07T15:58:48;2.03;;;1.40;;
20857;SDS011;10589;53.636;10.012;2023-05-07T16:01:13;2.10;;;1.83;;
20857;SDS011;10589;53.636;10.012;2023-05-07T16:03:39;2.55;;;1.40;;
20857;SDS011;10589;53.636;10.012;2023-05-07T16:06:05;3.08;;;1.77;;
20857;SDS011;10589;53.636;10.012;2023-05-07T16:08:31;3.13;;;1.55;;
20857;SDS011;10589;53.636;10.012;2023-05-07T16:10:57;3.08;;;1.83;;
20857;SDS011;10589;53.636;10.012;2023-05-07T16:13:23;2.72;;;1.73;;
20857;SDS011;10589;53.636;10.012;2023-05-07T16:15:55;1.85;;;1.48;;
20857;SDS011;10589;53.636;10.012;2023-05-07T16:18:23;3.45;;;1.63;;
20857;SDS011;10589;53.636;10.012;2023-05-07T16:20:49;4.30;;;1.60;;
20857;SDS011;10589;53.636;10.012;2023-05-07T16:23:14;3.38;;;1.85;;
20857;SDS011;10589;53.636;10.012;2023-05-07T16:25:40;1.95;;;1.48;;
20857;SDS011;10589;53.636;10.012;2023-05-07T16:28:06;1.60;;;1.40;;
20857;SDS011;10589;53.636;10.012;2023-05-07T16:30:32;1.20;;;1.10;;
20857;SDS011;10589;53.636;10.012;2023-05-07T16:32:57;5.63;;;1.70;;
20857;SDS011;10589;53.636;10.012;2023-05-07T16:35:23;4.82;;;1.48;;
20857;SDS011;10589;53.636;10.012;2023-05-07T16:37:49;2.00;;;1.58;;
20857;SDS011;10589;53.636;10.012;2023-05-07T16:40:14;3.45;;;1.40;;
20857;SDS011;10589;53.636;10.012;2023-05-07T16:42:40;2.63;;;1.02;;
20857;SDS011;10589;53.636;10.012;2023-05-07T16:45:06;3.72;;;1.35;;
20857;SDS011;10589;53.636;10.012;2023-05-07T16:47:32;2.33;;;1.60;;
20857;SDS011;10589;53.636;10.012;2023-05-07T16:49:58;2.88;;;1.42;;
20857;SDS011;10589;53.636;10.012;2023-05-07T16:52:29;4.05;;;1.58;;
20857;SDS011;10589;53.636;10.012;2023-05-07T16:54:55;3.13;;;1.50;;
20857;SDS011;10589;53.636;10.012;2023-05-07T16:57:24;2.50;;;1.42;;
20857;SDS011;10589;53.636;10.012;2023-05-07T16:59:54;2.08;;;1.48;;
20857;SDS011;10589;53.636;10.012;2023-05-07T17:02:20;5.68;;;1.50;;
20857;SDS011;10589;53.636;10.012;2023-05-07T17:04:46;3.05;;;1.50;;
20857;SDS011;10589;53.636;10.012;2023-05-07T17:07:12;3.13;;;1.50;;
20857;SDS011;10589;53.636;10.012;2023-05-07T17:09:39;1.88;;;1.30;;
20857;SDS011;10589;53.636;10.012;2023-05-07T17:12:04;5.93;;;1.55;;
20857;SDS011;10589;53.636;10.012;2023-05-07T17:14:30;3.20;;;1.42;;
20857;SDS011;10589;53.636;10.012;2023-05-07T17:16:56;1.65;;;1.35;;
20857;SDS011;10589;53.636;10.012;2023-05-07T17:19:21;2.20;;;1.58;;
20857;SDS011;10589;53.636;10.012;2023-05-07T17:21:47;3.45;;;1.48;;
20857;SDS011;10589;53.636;10.012;2023-05-07T17:24:13;2.55;;;1.50;;
20857;SDS011;10589;53.636;10.012;2023-05-07T17:26:38;3.05;;;1.67;;
20857;SDS011;10589;53.636;10.012;2023-05-07T17:29:07;2.35;;;1.55;;
20857;SDS011;10589;53.636;10.012;2023-05-07T17:31:33;2.92;;;1.80;;
20857;SDS011;10589;53.636;10.012;2023-05-07T17:33:59;1.77;;;1.45;;
20857;SDS011;10589;53.636;10.012;2023-05-07T17:36:25;1.70;;;1.50;;
20857;SDS011;10589;53.636;10.012;2023-05-07T17:38:50;1.90;;;1.55;;
20857;SDS011;10589;53.636;10.012;2023-05-07T17:41:17;2.10;;;1.60;;
20857;SDS011;10589;53.636;10.012;2023-05-07T17:43:42;1.80;;;1.70;;
20857;SDS011;10589;53.636;10.012;2023-05-07T17:46:08;2.30;;;1.30;;
20857;SDS011;10589;53.636;10.012;2023-05-07T17:48:34;2.10;;;1.50;;
20857;SDS011;10589;53.636;10.012;2023-05-07T17:51:00;1.83;;;1.50;;
20857;SDS011;10589;53.636;10.012;2023-05-07T17:53:27;2.40;;;1.80;;
20857;SDS011;10589;53.636;10.012;2023-05-07T17:55:52;1.93;;;1.70;;
20857;SDS011;10589;53.636;10.012;2023-05-07T17:58:18;3.20;;;1.70;;
20857;SDS011;10589;53.636;10.012;2023-05-07T18:00:44;1.90;;;1.47;;
20857;SDS011;10589;53.636;10.012;2023-05-07T18:03:09;3.57;;;1.87;;
20857;SDS011;10589;53.636;10.012;2023-05-07T18:05:35;2.00;;;1.70;;
20857;SDS011;10589;53.636;10.012;2023-05-07T18:08:01;3.10;;;1.60;;
20857;SDS011;10589;53.636;10.012;2023-05-07T18:10:27;3.30;;;1.70;;
20857;SDS011;10589;53.636;10.012;2023-05-07T18:12:53;3.03;;;1.67;;
20857;SDS011;10589;53.636;10.012;2023-05-07T18:15:18;2.53;;;1.83;;
20857;SDS011;10589;53.636;10.012;2023-05-07T18:17:44;2.17;;;1.70;;
20857;SDS011;10589;53.636;10.012;2023-05-07T18:20:10;2.13;;;1.60;;
20857;SDS011;10589;53.636;10.012;2023-05-07T18:22:36;2.17;;;1.93;;
20857;SDS011;10589;53.636;10.012;2023-05-07T18:25:03;3.03;;;1.90;;
20857;SDS011;10589;53.636;10.012;2023-05-07T18:27:29;2.20;;;1.90;;
20857;SDS011;10589;53.636;10.012;2023-05-07T18:29:55;4.13;;;1.73;;